Kaye E. Moran — WDB6244 — position and weather

sailwx.info

Track history (hours):
 
Tides and Currents Weather Stations Pressure Air Temp Water Temp Dewpoint Dewpoint Depression Visibility Wind Speed Wind Dir Waves Ship Positions

Kaye E. Moran

Owner: MORAN TOWING CORPORATION, NORFOLK, VA. More information available from US FCC via Universal Licensing System and Coast Guard Vessel Documentation Center.

Last reported at 2017-Nov-24 05:28 UTC. Time now 2017-Nov-24 05:47 UTC.
Position N 36°50' W 076°16'.

Length 26 m; draft 4.2 m.

Type: Tug. MMSI: 366920510.

Date/timePositionNaut miles runAvg speedWind from/ knotsBaromVisibWave heightAir tempDewpointWater temp
2017-Nov-24 05:28N 36°50' W 076°16'0 0.0
2017-Nov-24 04:58N 36°50' W 076°16'0 0.0
2017-Nov-24 04:28N 36°50' W 076°16'0 0.0
2017-Nov-24 04:00N 36°50' W 076°16'0 0.0
2017-Nov-24 03:30N 36°50' W 076°16'0 0.0
2017-Nov-24 00:09N 36°50' W 076°16'0 0.0
2017-Nov-23 23:57N 36°50' W 076°16'0 0.0
2017-Nov-23 23:27N 36°50' W 076°16'0 0.0
2017-Nov-23 23:00N 36°50' W 076°16'0 0.0
2017-Nov-23 21:27N 36°50' W 076°16'0 0.0
2017-Nov-23 20:45N 36°50' W 076°16'0 0.0
2017-Nov-23 20:30N 36°50' W 076°16'0 0.0
2017-Nov-23 20:00N 36°50' W 076°16'0 0.0
2017-Nov-23 19:30N 36°50' W 076°16'0 0.0
2017-Nov-23 19:00N 36°50' W 076°16'0 0.0
2017-Nov-23 18:30N 36°50' W 076°16'0 0.0
2017-Nov-23 17:57N 36°50' W 076°16'0 0.0
2017-Nov-23 17:24N 36°50' W 076°16'0 0.0
2017-Nov-23 17:00N 36°50' W 076°16'0 0.0
2017-Nov-23 16:30N 36°50' W 076°16'0 0.0
2017-Nov-23 15:57N 36°50' W 076°16'0 0.0
2017-Nov-23 15:24N 36°50' W 076°16'0 0.0
2017-Nov-23 15:00N 36°50' W 076°16'0 0.0
2017-Nov-23 14:24N 36°50' W 076°16'0 0.0
2017-Nov-23 13:57N 36°50' W 076°16'0 0.0
2017-Nov-23 13:30N 36°50' W 076°16'0 0.0
2017-Nov-23 13:00N 36°50' W 076°16'0 0.0
2017-Nov-23 12:30N 36°50' W 076°16'0 0.0
2017-Nov-23 12:00N 36°50' W 076°16'0 0.0
2017-Nov-23 11:30N 36°50' W 076°16'0 0.1
2017-Nov-23 11:00N 36°50' W 076°16'0 0.0
2017-Nov-23 10:30N 36°50' W 076°16'0 0.0
2017-Nov-23 09:57N 36°50' W 076°16'0 0.0
2017-Nov-23 09:06N 36°50' W 076°16'0 0.0
2017-Nov-23 08:42N 36°50' W 076°16'0 0.0
2017-Nov-23 08:30N 36°50' W 076°16'0 0.0
2017-Nov-23 08:00N 36°50' W 076°16'0 0.0
2017-Nov-23 07:28N 36°50' W 076°16'2 3.4
2017-Nov-23 07:00N 36°49' W 076°17'1 2.9
2017-Nov-23 06:30N 36°48' W 076°18'0 0.2
2017-Nov-23 05:59N 36°48' W 076°18'0 0.0
2017-Nov-23 05:30N 36°48' W 076°18'3 7.0
2017-Nov-23 05:00N 36°51' W 076°18'2 3.8
2017-Nov-23 04:29N 36°53' W 076°20'0 0.0
2017-Nov-23 03:59N 36°53' W 076°20'0 0.0
2017-Nov-23 03:29N 36°53' W 076°20'0 0.0
2017-Nov-23 02:59N 36°53' W 076°20'0 0.0
2017-Nov-23 02:29N 36°53' W 076°20'0 0.0
2017-Nov-23 01:59N 36°53' W 076°20'0 0.0
2017-Nov-23 01:26N 36°53' W 076°20'0 0.3
2017-Nov-23 01:00N 36°53' W 076°20'0 0.3
2017-Nov-23 00:16N 36°53' W 076°20'0 0.7
2017-Nov-22 23:58N 36°53' W 076°20'3 5.6
2017-Nov-22 23:30N 36°51' W 076°18'1 2.5
2017-Nov-22 23:00N 36°50' W 076°16'0 0.0
2017-Nov-22 22:30N 36°50' W 076°16'0 0.0
2017-Nov-22 21:54N 36°50' W 076°16'0 0.0
2017-Nov-22 21:24N 36°50' W 076°16'0 0.0
2017-Nov-22 21:00N 36°50' W 076°16'0 0.0
2017-Nov-22 20:30N 36°50' W 076°16'0 0.0
2017-Nov-22 20:00N 36°50' W 076°16'0 0.0
2017-Nov-22 19:30N 36°50' W 076°16'  
2017-Nov-19 00:38N 36°56' W 076°20'0 0.1
2017-Nov-19 00:28N 36°56' W 076°20'0 0.1
2017-Nov-18 23:58N 36°56' W 076°20'3 5.7
2017-Nov-18 23:27N 36°53' W 076°20'0 0.0
2017-Nov-18 22:57N 36°53' W 076°20'0 0.0
2017-Nov-18 22:30N 36°53' W 076°20'0 0.0
2017-Nov-18 22:00N 36°53' W 076°20'0 0.0
2017-Nov-18 21:30N 36°53' W 076°20'0 0.0
2017-Nov-18 21:00N 36°53' W 076°20'0 0.0
2017-Nov-18 19:48N 36°53' W 076°20'0 0.0
2017-Nov-18 19:30N 36°53' W 076°20'2 3.2
2017-Nov-18 19:00N 36°51' W 076°19'3 5.8
2017-Nov-18 18:30N 36°49' W 076°17'1 1.8
2017-Nov-18 18:00N 36°48' W 076°18'0 1.0
2017-Nov-18 17:30N 36°48' W 076°17'2 4.2
2017-Nov-18 16:59N 36°50' W 076°16'0 0.0
2017-Nov-18 16:23N 36°50' W 076°16'0 0.0
2017-Nov-18 15:56N 36°50' W 076°16'1 1.3
2017-Nov-18 15:30N 36°50' W 076°17'4 7.4
2017-Nov-18 15:00N 36°47' W 076°18'1 1.6
2017-Nov-18 14:30N 36°46' W 076°18'0 0.5
2017-Nov-18 14:00N 36°47' W 076°18'1 2.0
2017-Nov-18 13:30N 36°48' W 076°18'2 4.9
2017-Nov-18 13:00N 36°50' W 076°18'3 6.4
2017-Nov-18 12:30N 36°53' W 076°20'0 0.0
2017-Nov-18 11:23N 36°53' W 076°20'1 2.1
2017-Nov-18 10:45N 36°51' W 076°20'0 0.0
2017-Nov-18 10:10N 36°51' W 076°20'1 3.7
2017-Nov-18 10:00N 36°52' W 076°20'4 7.0
2017-Nov-18 09:27N 36°56' W 076°20'0 0.5
2017-Nov-18 08:50N 36°56' W 076°20'0 0.0
2017-Nov-18 02:35N 36°56' W 076°20'2 8.4
2017-Nov-18 02:18N 36°53' W 076°20'1 0.5
2017-Nov-18 01:12N 36°53' W 076°20'1 3.5
2017-Nov-18 01:00N 36°53' W 076°20'1 1.0
2017-Nov-18 00:14N 36°53' W 076°20'0 0.5
2017-Nov-18 00:00N 36°53' W 076°20'0 0.0
2017-Nov-17 23:30N 36°53' W 076°20'0 0.0
2017-Nov-17 23:00N 36°53' W 076°20'1 1.9
2017-Nov-17 22:19N 36°52' W 076°19'0 0.1
2017-Nov-17 21:23N 36°51' W 076°19'2 3.2
2017-Nov-17 20:49N 36°53' W 076°21'0 0.5
2017-Nov-17 19:55N 36°53' W 076°21'2 5.0
2017-Nov-17 19:30N 36°51' W 076°19'2 3.1
2017-Nov-17 18:52N 36°50' W 076°16'0 0.0
2017-Nov-17 18:16N 36°50' W 076°16'0 0.0
2017-Nov-17 17:52N 36°50' W 076°16'0 0.0
2017-Nov-17 17:25N 36°50' W 076°16'0 0.0
2017-Nov-17 16:58N 36°50' W 076°16'0 0.0
2017-Nov-17 16:28N 36°50' W 076°16'0 0.0
2017-Nov-17 14:16N 36°50' W 076°16'0 0.0
2017-Nov-17 13:55N 36°50' W 076°16'0 0.0
2017-Nov-17 13:25N 36°50' W 076°16'0 0.0
2017-Nov-17 12:22N 36°50' W 076°16'0 0.0
2017-Nov-17 11:25N 36°50' W 076°16'0 0.7
2017-Nov-17 11:00N 36°50' W 076°17'3 3.0
2017-Nov-17 10:09N 36°52' W 076°19'0 2.5
2017-Nov-17 10:00N 36°52' W 076°19'1 1.9
2017-Nov-17 09:30N 36°53' W 076°20'1 1.9
2017-Nov-17 08:59N 36°52' W 076°19'3 5.3
2017-Nov-17 08:28N 36°50' W 076°16'0 0.0
2017-Nov-17 07:58N 36°50' W 076°16'0 0.0
2017-Nov-17 05:40N 36°50' W 076°16'0 0.0
2017-Nov-17 05:28N 36°50' W 076°16'0 0.0
2017-Nov-17 04:16N 36°50' W 076°16'0 0.0
2017-Nov-17 03:46N 36°50' W 076°16'0 0.0
2017-Nov-17 03:10N 36°50' W 076°16'0 0.0
2017-Nov-17 02:58N 36°50' W 076°16'0 0.0
2017-Nov-16 23:52N 36°50' W 076°16'0 0.0
2017-Nov-16 21:43N 36°50' W 076°16'0 0.0
2017-Nov-16 21:19N 36°50' W 076°16'0 0.0
2017-Nov-16 20:58N 36°50' W 076°16'0 0.0
2017-Nov-16 20:28N 36°50' W 076°16'0 0.0
2017-Nov-16 19:55N 36°50' W 076°16'0 0.0
2017-Nov-16 19:28N 36°50' W 076°16'0 0.0
2017-Nov-16 18:58N 36°50' W 076°16'0 0.0
2017-Nov-16 18:28N 36°50' W 076°16'0 0.0
2017-Nov-16 17:58N 36°50' W 076°16'0 0.0
2017-Nov-16 17:28N 36°50' W 076°16'0 0.0
2017-Nov-16 16:58N 36°50' W 076°16'0 0.0
2017-Nov-16 16:28N 36°50' W 076°16'0 0.0
2017-Nov-16 13:55N 36°50' W 076°16'0 0.0
2017-Nov-16 13:04N 36°50' W 076°16'0 0.0
2017-Nov-16 12:54N 36°50' W 076°16'0 0.0
2017-Nov-16 12:27N 36°50' W 076°16'0 0.0
2017-Nov-16 12:00N 36°50' W 076°16'0 0.0
2017-Nov-16 11:30N 36°50' W 076°16'0 0.0
2017-Nov-16 11:00N 36°50' W 076°16'0 0.0
2017-Nov-16 10:30N 36°50' W 076°16'1 2.6
2017-Nov-16 10:00N 36°51' W 076°18'2 1.3
2017-Nov-16 08:52N 36°51' W 076°20'1 2.6
2017-Nov-16 08:30N 36°52' W 076°20'0 0.1
2017-Nov-16 05:24N 36°53' W 076°20'1 1.7
2017-Nov-16 04:54N 36°53' W 076°21'0 0.1
2017-Nov-16 04:28N 36°53' W 076°21'1 1.6
2017-Nov-16 04:00N 36°53' W 076°20'3 6.9
2017-Nov-16 03:30N 36°50' W 076°17'0 0.6
2017-Nov-16 02:59N 36°50' W 076°16'0 0.0
2017-Nov-16 02:29N 36°50' W 076°16'0 0.0
2017-Nov-16 01:59N 36°50' W 076°16'0 0.0
2017-Nov-16 01:29N 36°50' W 076°16'0 0.0
2017-Nov-16 00:59N 36°50' W 076°16'0 0.0
2017-Nov-16 00:29N 36°50' W 076°16'0 0.0
2017-Nov-15 23:59N 36°50' W 076°16'0 0.0
2017-Nov-15 23:29N 36°50' W 076°16'0 0.0
2017-Nov-15 22:53N 36°50' W 076°16'0 0.0
2017-Nov-15 21:47N 36°50' W 076°16'0 0.0
2017-Nov-15 21:29N 36°50' W 076°16'0 0.0
2017-Nov-15 20:59N 36°50' W 076°16'0 0.0
2017-Nov-15 20:29N 36°50' W 076°16'0 0.0
2017-Nov-15 19:59N 36°50' W 076°16'0 0.0
2017-Nov-15 19:17N 36°50' W 076°16'0 0.0
2017-Nov-15 18:59N 36°50' W 076°16'0 0.0
2017-Nov-15 18:30N 36°50' W 076°16'3 5.9
2017-Nov-15 18:00N 36°52' W 076°19'2 1.4
2017-Nov-15 16:35N 36°54' W 076°20'0 1.3
2017-Nov-15 16:26N 36°54' W 076°20'1 1.6
2017-Nov-15 15:39N 36°52' W 076°21'0 0.7
2017-Nov-15 15:30N 36°53' W 076°21'2 3.0
2017-Nov-15 14:53N 36°54' W 076°20'2 1.1
2017-Nov-15 13:13N 36°53' W 076°20'2 8.2
2017-Nov-15 13:00N 36°51' W 076°18'2 3.6
2017-Nov-15 12:30N 36°50' W 076°18'2 3.4
2017-Nov-15 12:00N 36°48' W 076°18'1 1.4
2017-Nov-15 11:30N 36°49' W 076°17'3 5.4
2017-Nov-15 11:00N 36°51' W 076°18'1 1.5
2017-Nov-15 10:28N 36°51' W 076°19'0 0.0
2017-Nov-15 10:01N 36°51' W 076°19'3 5.7
2017-Nov-15 09:31N 36°49' W 076°17'2 3.5
2017-Nov-15 09:00N 36°47' W 076°18'1 1.5
2017-Nov-15 08:30N 36°47' W 076°18'1 1.0
2017-Nov-15 07:59N 36°47' W 076°18'0 0.0
2017-Nov-15 07:29N 36°47' W 076°18'0 0.0
2017-Nov-15 06:59N 36°47' W 076°18'0 0.1
2017-Nov-15 06:30N 36°47' W 076°18'3 6.3
2017-Nov-15 06:00N 36°50' W 076°18'1 1.8
2017-Nov-15 05:24N 36°50' W 076°16'0 0.0
2017-Nov-15 05:00N 36°50' W 076°16'0 0.0
2017-Nov-15 04:30N 36°50' W 076°16'0 0.0
2017-Nov-15 03:57N 36°50' W 076°16'0 0.0
2017-Nov-15 03:30N 36°50' W 076°16'0 0.0
2017-Nov-15 02:54N 36°50' W 076°16'0 0.0
2017-Nov-15 02:30N 36°50' W 076°16'0 0.0
2017-Nov-14 23:47N 36°50' W 076°16'2 6.6
2017-Nov-14 23:30N 36°51' W 076°18'12 4.4
2017-Nov-14 20:50N 36°58' W 076°06'2 4.1
2017-Nov-14 20:27N 36°57' W 076°05'12 3.6
2017-Nov-14 17:03N 36°51' W 076°19'1 9.1
2017-Nov-14 16:59N 36°51' W 076°18'2 4.8
2017-Nov-14 16:30N 36°49' W 076°17'1 1.5
2017-Nov-14 15:58N 36°48' W 076°17'0 0.0
2017-Nov-14 15:28N 36°48' W 076°17'0 0.0
2017-Nov-14 15:00N 36°48' W 076°17'3 6.1
2017-Nov-14 14:30N 36°51' W 076°18'4 8.2
2017-Nov-14 14:00N 36°55' W 076°20'  
Track history (hours):
 
Tides and Currents Weather Stations Pressure Air Temp Water Temp Dewpoint Dewpoint Depression Visibility Wind Speed Wind Dir Waves Ship Positions

Kaye E. Moran

Owner: MORAN TOWING CORPORATION, NORFOLK, VA. More information available from US FCC via Universal Licensing System and Coast Guard Vessel Documentation Center.

Last reported at 2017-Nov-24 05:28 UTC. Time now 2017-Nov-24 05:47 UTC.
Position N 36°50' W 076°16'.

Length 26 m; draft 4.2 m.

Type: Tug. MMSI: 366920510.

Date/timePositionNaut miles runAvg speedWind from/ knotsBaromVisibWave heightAir tempDewpointWater temp
2017-Nov-24 05:28N 36°50' W 076°16'0 0.0
2017-Nov-24 04:58N 36°50' W 076°16'0 0.0
2017-Nov-24 04:28N 36°50' W 076°16'0 0.0
2017-Nov-24 04:00N 36°50' W 076°16'0 0.0
2017-Nov-24 03:30N 36°50' W 076°16'0 0.0
2017-Nov-24 00:09N 36°50' W 076°16'0 0.0
2017-Nov-23 23:57N 36°50' W 076°16'0 0.0
2017-Nov-23 23:27N 36°50' W 076°16'0 0.0
2017-Nov-23 23:00N 36°50' W 076°16'0 0.0
2017-Nov-23 21:27N 36°50' W 076°16'0 0.0
2017-Nov-23 20:45N 36°50' W 076°16'0 0.0
2017-Nov-23 20:30N 36°50' W 076°16'0 0.0
2017-Nov-23 20:00N 36°50' W 076°16'0 0.0
2017-Nov-23 19:30N 36°50' W 076°16'0 0.0
2017-Nov-23 19:00N 36°50' W 076°16'0 0.0
2017-Nov-23 18:30N 36°50' W 076°16'0 0.0
2017-Nov-23 17:57N 36°50' W 076°16'0 0.0
2017-Nov-23 17:24N 36°50' W 076°16'0 0.0
2017-Nov-23 17:00N 36°50' W 076°16'0 0.0
2017-Nov-23 16:30N 36°50' W 076°16'0 0.0
2017-Nov-23 15:57N 36°50' W 076°16'0 0.0
2017-Nov-23 15:24N 36°50' W 076°16'0 0.0
2017-Nov-23 15:00N 36°50' W 076°16'0 0.0
2017-Nov-23 14:24N 36°50' W 076°16'0 0.0
2017-Nov-23 13:57N 36°50' W 076°16'0 0.0
2017-Nov-23 13:30N 36°50' W 076°16'0 0.0
2017-Nov-23 13:00N 36°50' W 076°16'0 0.0
2017-Nov-23 12:30N 36°50' W 076°16'0 0.0
2017-Nov-23 12:00N 36°50' W 076°16'0 0.0
2017-Nov-23 11:30N 36°50' W 076°16'0 0.1
2017-Nov-23 11:00N 36°50' W 076°16'0 0.0
2017-Nov-23 10:30N 36°50' W 076°16'0 0.0
2017-Nov-23 09:57N 36°50' W 076°16'0 0.0
2017-Nov-23 09:06N 36°50' W 076°16'0 0.0
2017-Nov-23 08:42N 36°50' W 076°16'0 0.0
2017-Nov-23 08:30N 36°50' W 076°16'0 0.0
2017-Nov-23 08:00N 36°50' W 076°16'0 0.0
2017-Nov-23 07:28N 36°50' W 076°16'2 3.4
2017-Nov-23 07:00N 36°49' W 076°17'1 2.9
2017-Nov-23 06:30N 36°48' W 076°18'0 0.2
2017-Nov-23 05:59N 36°48' W 076°18'0 0.0
2017-Nov-23 05:30N 36°48' W 076°18'3 7.0
2017-Nov-23 05:00N 36°51' W 076°18'2 3.8
2017-Nov-23 04:29N 36°53' W 076°20'0 0.0
2017-Nov-23 03:59N 36°53' W 076°20'0 0.0
2017-Nov-23 03:29N 36°53' W 076°20'0 0.0
2017-Nov-23 02:59N 36°53' W 076°20'0 0.0
2017-Nov-23 02:29N 36°53' W 076°20'0 0.0
2017-Nov-23 01:59N 36°53' W 076°20'0 0.0
2017-Nov-23 01:26N 36°53' W 076°20'0 0.3
2017-Nov-23 01:00N 36°53' W 076°20'0 0.3
2017-Nov-23 00:16N 36°53' W 076°20'0 0.7
2017-Nov-22 23:58N 36°53' W 076°20'3 5.6
2017-Nov-22 23:30N 36°51' W 076°18'1 2.5
2017-Nov-22 23:00N 36°50' W 076°16'0 0.0
2017-Nov-22 22:30N 36°50' W 076°16'0 0.0
2017-Nov-22 21:54N 36°50' W 076°16'0 0.0
2017-Nov-22 21:24N 36°50' W 076°16'0 0.0
2017-Nov-22 21:00N 36°50' W 076°16'0 0.0
2017-Nov-22 20:30N 36°50' W 076°16'0 0.0
2017-Nov-22 20:00N 36°50' W 076°16'0 0.0
2017-Nov-22 19:30N 36°50' W 076°16'  
2017-Nov-19 00:38N 36°56' W 076°20'0 0.1
2017-Nov-19 00:28N 36°56' W 076°20'0 0.1
2017-Nov-18 23:58N 36°56' W 076°20'3 5.7
2017-Nov-18 23:27N 36°53' W 076°20'0 0.0
2017-Nov-18 22:57N 36°53' W 076°20'0 0.0
2017-Nov-18 22:30N 36°53' W 076°20'0 0.0
2017-Nov-18 22:00N 36°53' W 076°20'0 0.0
2017-Nov-18 21:30N 36°53' W 076°20'0 0.0
2017-Nov-18 21:00N 36°53' W 076°20'0 0.0
2017-Nov-18 19:48N 36°53' W 076°20'0 0.0
2017-Nov-18 19:30N 36°53' W 076°20'2 3.2
2017-Nov-18 19:00N 36°51' W 076°19'3 5.8
2017-Nov-18 18:30N 36°49' W 076°17'1 1.8
2017-Nov-18 18:00N 36°48' W 076°18'0 1.0
2017-Nov-18 17:30N 36°48' W 076°17'2 4.2
2017-Nov-18 16:59N 36°50' W 076°16'0 0.0
2017-Nov-18 16:23N 36°50' W 076°16'0 0.0
2017-Nov-18 15:56N 36°50' W 076°16'1 1.3
2017-Nov-18 15:30N 36°50' W 076°17'4 7.4
2017-Nov-18 15:00N 36°47' W 076°18'1 1.6
2017-Nov-18 14:30N 36°46' W 076°18'0 0.5
2017-Nov-18 14:00N 36°47' W 076°18'1 2.0
2017-Nov-18 13:30N 36°48' W 076°18'2 4.9
2017-Nov-18 13:00N 36°50' W 076°18'3 6.4
2017-Nov-18 12:30N 36°53' W 076°20'0 0.0
2017-Nov-18 11:23N 36°53' W 076°20'1 2.1
2017-Nov-18 10:45N 36°51' W 076°20'0 0.0
2017-Nov-18 10:10N 36°51' W 076°20'1 3.7
2017-Nov-18 10:00N 36°52' W 076°20'4 7.0
2017-Nov-18 09:27N 36°56' W 076°20'0 0.5
2017-Nov-18 08:50N 36°56' W 076°20'0 0.0
2017-Nov-18 02:35N 36°56' W 076°20'2 8.4
2017-Nov-18 02:18N 36°53' W 076°20'1 0.5
2017-Nov-18 01:12N 36°53' W 076°20'1 3.5
2017-Nov-18 01:00N 36°53' W 076°20'1 1.0
2017-Nov-18 00:14N 36°53' W 076°20'0 0.5
2017-Nov-18 00:00N 36°53' W 076°20'0 0.0
2017-Nov-17 23:30N 36°53' W 076°20'0 0.0
2017-Nov-17 23:00N 36°53' W 076°20'1 1.9
2017-Nov-17 22:19N 36°52' W 076°19'0 0.1
2017-Nov-17 21:23N 36°51' W 076°19'2 3.2
2017-Nov-17 20:49N 36°53' W 076°21'0 0.5
2017-Nov-17 19:55N 36°53' W 076°21'2 5.0
2017-Nov-17 19:30N 36°51' W 076°19'2 3.1
2017-Nov-17 18:52N 36°50' W 076°16'0 0.0
2017-Nov-17 18:16N 36°50' W 076°16'0 0.0
2017-Nov-17 17:52N 36°50' W 076°16'0 0.0
2017-Nov-17 17:25N 36°50' W 076°16'0 0.0
2017-Nov-17 16:58N 36°50' W 076°16'0 0.0
2017-Nov-17 16:28N 36°50' W 076°16'0 0.0
2017-Nov-17 14:16N 36°50' W 076°16'0 0.0
2017-Nov-17 13:55N 36°50' W 076°16'0 0.0
2017-Nov-17 13:25N 36°50' W 076°16'0 0.0
2017-Nov-17 12:22N 36°50' W 076°16'0 0.0
2017-Nov-17 11:25N 36°50' W 076°16'0 0.7
2017-Nov-17 11:00N 36°50' W 076°17'3 3.0
2017-Nov-17 10:09N 36°52' W 076°19'0 2.5
2017-Nov-17 10:00N 36°52' W 076°19'1 1.9
2017-Nov-17 09:30N 36°53' W 076°20'1 1.9
2017-Nov-17 08:59N 36°52' W 076°19'3 5.3
2017-Nov-17 08:28N 36°50' W 076°16'0 0.0
2017-Nov-17 07:58N 36°50' W 076°16'0 0.0
2017-Nov-17 05:40N 36°50' W 076°16'0 0.0
2017-Nov-17 05:28N 36°50' W 076°16'0 0.0
2017-Nov-17 04:16N 36°50' W 076°16'0 0.0
2017-Nov-17 03:46N 36°50' W 076°16'0 0.0
2017-Nov-17 03:10N 36°50' W 076°16'0 0.0
2017-Nov-17 02:58N 36°50' W 076°16'0 0.0
2017-Nov-16 23:52N 36°50' W 076°16'0 0.0
2017-Nov-16 21:43N 36°50' W 076°16'0 0.0
2017-Nov-16 21:19N 36°50' W 076°16'0 0.0
2017-Nov-16 20:58N 36°50' W 076°16'0 0.0
2017-Nov-16 20:28N 36°50' W 076°16'0 0.0
2017-Nov-16 19:55N 36°50' W 076°16'0 0.0
2017-Nov-16 19:28N 36°50' W 076°16'0 0.0
2017-Nov-16 18:58N 36°50' W 076°16'0 0.0
2017-Nov-16 18:28N 36°50' W 076°16'0 0.0
2017-Nov-16 17:58N 36°50' W 076°16'0 0.0
2017-Nov-16 17:28N 36°50' W 076°16'0 0.0
2017-Nov-16 16:58N 36°50' W 076°16'0 0.0
2017-Nov-16 16:28N 36°50' W 076°16'0 0.0
2017-Nov-16 13:55N 36°50' W 076°16'0 0.0
2017-Nov-16 13:04N 36°50' W 076°16'0 0.0
2017-Nov-16 12:54N 36°50' W 076°16'0 0.0
2017-Nov-16 12:27N 36°50' W 076°16'0 0.0
2017-Nov-16 12:00N 36°50' W 076°16'0 0.0
2017-Nov-16 11:30N 36°50' W 076°16'0 0.0
2017-Nov-16 11:00N 36°50' W 076°16'0 0.0
2017-Nov-16 10:30N 36°50' W 076°16'1 2.6
2017-Nov-16 10:00N 36°51' W 076°18'2 1.3
2017-Nov-16 08:52N 36°51' W 076°20'1 2.6
2017-Nov-16 08:30N 36°52' W 076°20'0 0.1
2017-Nov-16 05:24N 36°53' W 076°20'1 1.7
2017-Nov-16 04:54N 36°53' W 076°21'0 0.1
2017-Nov-16 04:28N 36°53' W 076°21'1 1.6
2017-Nov-16 04:00N 36°53' W 076°20'3 6.9
2017-Nov-16 03:30N 36°50' W 076°17'0 0.6
2017-Nov-16 02:59N 36°50' W 076°16'0 0.0
2017-Nov-16 02:29N 36°50' W 076°16'0 0.0
2017-Nov-16 01:59N 36°50' W 076°16'0 0.0
2017-Nov-16 01:29N 36°50' W 076°16'0 0.0
2017-Nov-16 00:59N 36°50' W 076°16'0 0.0
2017-Nov-16 00:29N 36°50' W 076°16'0 0.0
2017-Nov-15 23:59N 36°50' W 076°16'0 0.0
2017-Nov-15 23:29N 36°50' W 076°16'0 0.0
2017-Nov-15 22:53N 36°50' W 076°16'0 0.0
2017-Nov-15 21:47N 36°50' W 076°16'0 0.0
2017-Nov-15 21:29N 36°50' W 076°16'0 0.0
2017-Nov-15 20:59N 36°50' W 076°16'0 0.0
2017-Nov-15 20:29N 36°50' W 076°16'0 0.0
2017-Nov-15 19:59N 36°50' W 076°16'0 0.0
2017-Nov-15 19:17N 36°50' W 076°16'0 0.0
2017-Nov-15 18:59N 36°50' W 076°16'0 0.0
2017-Nov-15 18:30N 36°50' W 076°16'3 5.9
2017-Nov-15 18:00N 36°52' W 076°19'2 1.4
2017-Nov-15 16:35N 36°54' W 076°20'0 1.3
2017-Nov-15 16:26N 36°54' W 076°20'1 1.6
2017-Nov-15 15:39N 36°52' W 076°21'0 0.7
2017-Nov-15 15:30N 36°53' W 076°21'2 3.0
2017-Nov-15 14:53N 36°54' W 076°20'2 1.1
2017-Nov-15 13:13N 36°53' W 076°20'2 8.2
2017-Nov-15 13:00N 36°51' W 076°18'2 3.6
2017-Nov-15 12:30N 36°50' W 076°18'2 3.4
2017-Nov-15 12:00N 36°48' W 076°18'1 1.4
2017-Nov-15 11:30N 36°49' W 076°17'3 5.4
2017-Nov-15 11:00N 36°51' W 076°18'1 1.5
2017-Nov-15 10:28N 36°51' W 076°19'0 0.0
2017-Nov-15 10:01N 36°51' W 076°19'3 5.7
2017-Nov-15 09:31N 36°49' W 076°17'2 3.5
2017-Nov-15 09:00N 36°47' W 076°18'1 1.5
2017-Nov-15 08:30N 36°47' W 076°18'1 1.0
2017-Nov-15 07:59N 36°47' W 076°18'0 0.0
2017-Nov-15 07:29N 36°47' W 076°18'0 0.0
2017-Nov-15 06:59N 36°47' W 076°18'0 0.1
2017-Nov-15 06:30N 36°47' W 076°18'3 6.3
2017-Nov-15 06:00N 36°50' W 076°18'1 1.8
2017-Nov-15 05:24N 36°50' W 076°16'0 0.0
2017-Nov-15 05:00N 36°50' W 076°16'0 0.0
2017-Nov-15 04:30N 36°50' W 076°16'0 0.0
2017-Nov-15 03:57N 36°50' W 076°16'0 0.0
2017-Nov-15 03:30N 36°50' W 076°16'0 0.0
2017-Nov-15 02:54N 36°50' W 076°16'0 0.0
2017-Nov-15 02:30N 36°50' W 076°16'0 0.0
2017-Nov-14 23:47N 36°50' W 076°16'2 6.6
2017-Nov-14 23:30N 36°51' W 076°18'12 4.4
2017-Nov-14 20:50N 36°58' W 076°06'2 4.1
2017-Nov-14 20:27N 36°57' W 076°05'12 3.6
2017-Nov-14 17:03N 36°51' W 076°19'1 9.1
2017-Nov-14 16:59N 36°51' W 076°18'2 4.8
2017-Nov-14 16:30N 36°49' W 076°17'1 1.5
2017-Nov-14 15:58N 36°48' W 076°17'0 0.0
2017-Nov-14 15:28N 36°48' W 076°17'0 0.0
2017-Nov-14 15:00N 36°48' W 076°17'3 6.1
2017-Nov-14 14:30N 36°51' W 076°18'4 8.2
2017-Nov-14 14:00N 36°55' W 076°20'  

Dump ship's entire track history